Time;durP1;ratioP1;P1;durP2;ratioP2;P2;SDS_P1;SDS_P2;PMS_P1;PMS_P2;Temp;Humidity;BMP_temperature;BMP_pressure;BME280_temperature;BME280_humidity;BME280_pressure;Samples;Min_cycle;Max_cycle;Signal;HPM_P1;HPM_P2
2023/10/01 00:01:00;;;;;;;13.50;3.90;;;24.30;58.60;;;;;;217316;1292;22688;-59
2023/10/01 00:06:24;;;;;;;6.00;3.80;;;24.30;59.30;;;;;;217535;1291;22557;-64
2023/10/01 00:11:28;;;;;;;7.10;3.80;;;24.30;59.30;;;;;;217317;1285;25596;-65
2023/10/01 00:16:31;;;;;;;8.20;4.10;;;24.30;59.30;;;;;;217098;1291;22566;-66
2023/10/01 00:21:34;;;;;;;4.60;3.20;;;24.30;59.30;;;;;;216949;1291;24235;-64
2023/10/01 00:26:37;;;;;;;9.20;3.70;;;24.30;59.10;;;;;;217338;1294;22573;-64
2023/10/01 00:31:41;;;;;;;5.80;3.50;;;24.30;59.20;;;;;;216898;1292;22686;-65
2023/10/01 00:36:44;;;;;;;7.40;3.10;;;24.20;59.80;;;;;;216951;1294;25303;-64
2023/10/01 00:41:47;;;;;;;5.00;3.40;;;24.30;59.40;;;;;;217322;1292;22953;-65
2023/10/01 00:46:50;;;;;;;4.60;3.20;;;24.30;59.60;;;;;;216982;1294;24198;-64
2023/10/01 00:51:53;;;;;;;11.20;3.30;;;24.20;59.10;;;;;;216826;1291;24087;-64
2023/10/01 00:56:57;;;;;;;4.00;3.40;;;24.20;59.30;;;;;;217151;1285;22549;-66
2023/10/01 01:02:01;;;;;;;4.20;3.70;;;24.20;59.50;;;;;;217200;1292;25625;-65
2023/10/01 01:07:42;;;;;;;7.80;3.50;;;24.20;59.40;;;;;;217231;1291;23921;-68
2023/10/01 01:12:38;;;;;;;3.70;3.00;;;24.20;59.40;;;;;;217397;1291;22546;-66
2023/10/01 01:17:41;;;;;;;4.40;2.90;;;24.10;59.40;;;;;;217003;1291;22668;-66
2023/10/01 01:22:51;;;;;;;5.20;3.20;;;24.10;59.50;;;;;;217154;1295;23931;-63
2023/10/01 01:27:57;;;;;;;4.00;3.20;;;24.10;59.60;;;;;;217334;1288;25508;-66
2023/10/01 01:33:00;;;;;;;5.70;4.00;;;24.10;59.70;;;;;;216843;1292;24443;-65
2023/10/01 01:38:04;;;;;;;6.10;4.00;;;24.10;59.60;;;;;;217308;1294;25393;-67
2023/10/01 01:43:30;;;;;;;5.00;3.50;;;24.10;59.90;;;;;;216960;1282;24279;-65
2023/10/01 01:48:34;;;;;;;5.20;3.10;;;24.00;59.90;;;;;;217296;1297;22556;-65
2023/10/01 01:53:41;;;;;;;7.00;4.40;;;24.00;60.00;;;;;;217158;1295;22545;-65
2023/10/01 01:58:44;;;;;;;4.30;3.20;;;23.90;60.00;;;;;;217202;1282;25113;-65
2023/10/01 02:04:00;;;;;;;5.10;3.00;;;23.90;60.10;;;;;;217216;1288;22556;-65
2023/10/01 02:09:12;;;;;;;5.30;3.40;;;23.90;60.00;;;;;;217259;1292;22572;-66
2023/10/01 02:14:31;;;;;;;7.10;3.20;;;23.90;60.00;;;;;;217248;1293;22545;-65
2023/10/01 02:19:35;;;;;;;4.10;3.30;;;23.90;60.00;;;;;;218931;1297;23993;-64
2023/10/01 02:24:44;;;;;;;4.20;3.60;;;23.90;60.00;;;;;;218629;1294;22576;-64
2023/10/01 02:35:34;;;;;;;3.90;3.10;;;23.90;60.00;;;;;;217180;1288;23030;-64
2023/10/01 02:40:37;;;;;;;4.90;3.20;;;23.90;60.20;;;;;;217353;1292;22698;-63
2023/10/01 02:45:42;;;;;;;3.60;3.20;;;23.80;60.10;;;;;;217218;1291;23705;-65
2023/10/01 02:50:52;;;;;;;6.50;3.30;;;23.80;60.20;;;;;;217083;1293;22565;-65
2023/10/01 02:56:02;;;;;;;5.10;3.30;;;23.80;60.30;;;;;;217086;1290;26297;-64
2023/10/01 03:01:08;;;;;;;8.60;3.70;;;23.70;60.10;;;;;;217193;1292;24237;-64
2023/10/01 03:06:11;;;;;;;4.10;3.50;;;23.80;60.20;;;;;;216905;1291;341520;-64
2023/10/01 03:11:22;;;;;;;5.00;3.50;;;23.80;60.30;;;;;;217181;1288;22578;-66
2023/10/01 03:16:42;;;;;;;2.90;2.70;;;23.70;60.10;;;;;;217241;1298;22575;-65
2023/10/01 03:27:40;;;;;;;5.20;3.10;;;23.80;60.30;;;;;;217181;1291;22548;-66
2023/10/01 03:32:40;;;;;;;4.40;3.50;;;23.80;60.40;;;;;;216818;1292;23977;-65
2023/10/01 03:37:43;;;;;;;3.90;2.90;;;23.70;60.20;;;;;;217244;1288;22656;-66
2023/10/01 03:42:51;;;;;;;3.70;2.70;;;23.70;60.30;;;;;;217093;1295;22576;-64
2023/10/01 03:47:59;;;;;;;3.90;2.90;;;23.70;60.40;;;;;;217306;1291;25037;-65
2023/10/01 03:53:11;;;;;;;2.80;2.40;;;23.70;60.20;;;;;;217130;1295;24260;-66
2023/10/01 03:58:26;;;;;;;4.20;3.00;;;23.70;60.30;;;;;;216426;1299;22550;-65
2023/10/01 04:03:38;;;;;;;5.10;2.80;;;23.70;60.40;;;;;;216317;1291;25673;-65
2023/10/01 04:08:44;;;;;;;3.70;2.60;;;23.70;60.30;;;;;;216326;1294;22844;-64
2023/10/01 04:14:07;;;;;;;4.50;2.70;;;23.70;60.70;;;;;;216309;1295;24282;-64
2023/10/01 04:19:11;;;;;;;9.40;4.80;;;23.70;60.30;;;;;;216811;1292;23210;-59
2023/10/01 04:24:16;;;;;;;3.10;2.80;;;23.70;60.60;;;;;;216777;1298;25389;-60
2023/10/01 04:29:19;;;;;;;3.60;2.70;;;23.70;60.30;;;;;;218460;1291;22563;-61
2023/10/01 04:34:23;;;;;;;5.70;2.70;;;23.70;60.00;;;;;;217102;1295;22563;-60
2023/10/01 04:39:26;;;;;;;3.20;2.60;;;23.60;60.30;;;;;;217213;1294;22642;-59
2023/10/01 04:44:30;;;;;;;3.40;2.80;;;23.60;60.80;;;;;;217218;1298;22568;-59
2023/10/01 04:49:41;;;;;;;3.30;2.60;;;23.60;60.30;;;;;;217273;1295;25255;-59
2023/10/01 04:54:49;;;;;;;2.90;2.60;;;23.60;60.50;;;;;;217037;1294;22572;-58
2023/10/01 04:59:58;;;;;;;5.50;3.20;;;23.60;60.30;;;;;;217082;1292;24253;-60
2023/10/01 05:05:11;;;;;;;3.70;2.90;;;23.60;60.30;;;;;;217058;1295;25434;-60
2023/10/01 05:10:14;;;;;;;2.90;2.60;;;23.60;60.30;;;;;;217340;1297;22623;-60
2023/10/01 05:15:17;;;;;;;2.60;2.30;;;23.60;60.40;;;;;;217023;1294;25433;-58
2023/10/01 05:20:25;;;;;;;3.40;2.90;;;23.60;60.30;;;;;;217100;1297;25355;-59
2023/10/01 05:25:31;;;;;;;5.30;3.30;;;23.50;60.50;;;;;;217365;1298;22612;-61
2023/10/01 05:30:42;;;;;;;4.60;3.00;;;23.50;60.40;;;;;;217375;1298;22643;-63
2023/10/01 05:35:47;;;;;;;3.50;2.60;;;23.60;60.70;;;;;;217240;1298;24250;-67
2023/10/01 05:40:55;;;;;;;3.90;2.40;;;23.50;60.30;;;;;;217256;1298;22987;-65
2023/10/01 05:46:01;;;;;;;2.80;2.40;;;23.60;60.40;;;;;;217222;1298;22825;-65
2023/10/01 05:51:08;;;;;;;5.10;3.60;;;23.60;60.10;;;;;;216962;1292;22694;-65
2023/10/01 05:56:15;;;;;;;2.70;2.50;;;23.60;60.30;;;;;;217163;1292;22549;-63
2023/10/01 06:01:21;;;;;;;2.70;2.20;;;23.60;60.70;;;;;;217065;1298;22560;-64
2023/10/01 06:06:25;;;;;;;3.40;2.70;;;23.50;60.30;;;;;;217319;1298;24249;-66
2023/10/01 06:11:39;;;;;;;3.30;2.50;;;23.50;60.20;;;;;;217252;1288;24221;-63
2023/10/01 06:16:43;;;;;;;3.40;2.60;;;23.60;60.20;;;;;;217159;1290;22556;-65
2023/10/01 06:21:47;;;;;;;4.70;2.80;;;23.60;60.10;;;;;;217374;1292;22553;-65
2023/10/01 06:26:50;;;;;;;4.90;3.20;;;23.60;60.40;;;;;;217226;1298;22571;-65
2023/10/01 06:32:02;;;;;;;3.60;2.80;;;23.50;60.40;;;;;;217163;1292;25419;-66
2023/10/01 06:37:06;;;;;;;2.80;2.10;;;23.60;60.50;;;;;;216997;1282;23024;-66
2023/10/01 06:42:18;;;;;;;3.90;3.00;;;23.60;60.30;;;;;;217138;1292;24237;-64
2023/10/01 06:47:26;;;;;;;3.70;2.50;;;23.60;60.20;;;;;;217326;1298;22583;-65
2023/10/01 06:52:34;;;;;;;2.50;2.30;;;23.60;60.10;;;;;;217143;1295;25416;-65
2023/10/01 06:57:38;;;;;;;3.40;2.40;;;23.60;60.10;;;;;;217181;1285;22555;-65
2023/10/01 07:02:41;;;;;;;2.10;1.90;;;23.60;61.00;;;;;;217086;1298;22650;-63
2023/10/01 07:07:54;;;;;;;2.70;2.50;;;23.60;60.30;;;;;;216961;1298;25608;-67
2023/10/01 07:13:04;;;;;;;3.50;2.50;;;23.60;60.30;;;;;;217060;1298;23197;-65
2023/10/01 07:18:19;;;;;;;3.50;2.80;;;23.60;60.20;;;;;;216972;1285;24286;-66
2023/10/01 07:23:22;;;;;;;4.20;2.70;;;23.60;60.30;;;;;;217104;1295;22568;-63
2023/10/01 07:28:26;;;;;;;2.90;2.40;;;23.60;60.50;;;;;;217140;1298;24256;-64
2023/10/01 07:33:28;;;;;;;2.20;2.00;;;23.60;60.10;;;;;;217148;1298;24110;-64
2023/10/01 07:38:46;;;;;;;3.00;2.10;;;23.60;60.10;;;;;;217215;1298;23955;-64
2023/10/01 07:43:49;;;;;;;2.60;2.40;;;23.70;60.10;;;;;;216976;1292;22564;-62
2023/10/01 07:48:52;;;;;;;2.70;2.10;;;23.70;60.10;;;;;;217094;1292;22901;-62
2023/10/01 07:54:02;;;;;;;10.70;2.30;;;23.60;60.30;;;;;;217167;1295;22564;-63
2023/10/01 07:59:28;;;;;;;2.90;2.40;;;23.70;60.80;;;;;;217099;1292;22545;-63
2023/10/01 08:09:54;;;;;;;3.10;2.30;;;23.70;60.10;;;;;;217057;1295;22730;-63
2023/10/01 08:20:21;;;;;;;3.50;2.70;;;23.60;60.30;;;;;;217104;1295;23963;-63
2023/10/01 08:25:25;;;;;;;7.10;3.30;;;23.60;60.20;;;;;;217113;1292;23956;-63
2023/10/01 08:30:43;;;;;;;4.70;3.10;;;23.70;59.90;;;;;;217229;1291;25424;-64
2023/10/01 08:41:32;;;;;;;5.80;3.80;;;23.70;61.40;;;;;;216924;1298;23345;-64
2023/10/01 08:46:40;;;;;;;5.00;3.20;;;23.80;60.90;;;;;;217301;1291;25303;-63
2023/10/01 08:51:43;;;;;;;6.70;3.10;;;23.90;60.80;;;;;;217276;1292;22549;-61
2023/10/01 08:56:46;;;;;;;6.00;3.90;;;23.90;61.20;;;;;;217410;1298;23255;-63
2023/10/01 09:01:52;;;;;;;8.80;3.70;;;23.90;60.80;;;;;;217224;1292;24289;-62
2023/10/01 09:07:04;;;;;;;5.90;3.80;;;23.80;61.30;;;;;;217681;1288;22572;-62
2023/10/01 09:12:19;;;;;;;5.50;3.30;;;23.70;61.10;;;;;;217476;1295;22602;-62
2023/10/01 09:17:26;;;;;;;5.00;3.30;;;23.70;61.60;;;;;;217233;1295;22701;-62
2023/10/01 09:27:36;;;;;;;7.20;3.30;;;23.80;61.30;;;;;;217549;1291;22711;-64
2023/10/01 09:32:51;;;;;;;7.50;3.10;;;23.90;60.70;;;;;;217338;1291;22782;-62
2023/10/01 09:38:13;;;;;;;5.30;3.00;;;24.00;60.70;;;;;;217592;1298;24410;-64
2023/10/01 09:43:18;;;;;;;8.60;3.20;;;23.90;61.20;;;;;;217310;1292;24259;-63
2023/10/01 09:48:36;;;;;;;4.10;3.50;;;24.10;60.60;;;;;;217171;1288;23972;-66
2023/10/01 09:53:55;;;;;;;9.00;3.60;;;24.00;60.70;;;;;;217283;1291;24107;-63
2023/10/01 09:59:11;;;;;;;20.20;5.30;;;24.00;60.60;;;;;;217143;1292;23940;-64
2023/10/01 10:04:20;;;;;;;6.20;3.30;;;24.00;60.70;;;;;;217332;1291;22688;-63
2023/10/01 10:09:29;;;;;;;8.70;3.70;;;23.90;60.90;;;;;;215589;1303;25467;-63
2023/10/01 10:14:35;;;;;;;29.90;3.60;;;24.10;60.50;;;;;;215257;1299;22759;-63
2023/10/01 10:20:16;;;;;;;75.00;27.50;;;24.10;60.60;;;;;;215675;1299;24273;-63
2023/10/01 10:25:25;;;;;;;59.80;24.70;;;24.10;60.40;;;;;;216172;1292;25702;-65
2023/10/01 10:30:30;;;;;;;113.20;41.90;;;24.20;60.10;;;;;;217505;1292;22568;-64
2023/10/01 10:35:39;;;;;;;157.20;59.80;;;24.20;60.60;;;;;;216917;1291;24261;-65
2023/10/01 10:41:07;;;;;;;123.40;48.60;;;24.30;59.90;;;;;;217620;1291;24329;-64
2023/10/01 10:46:10;;;;;;;93.90;36.40;;;24.30;59.70;;;;;;217192;1292;24155;-66
2023/10/01 10:51:45;;;;;;;85.90;33.20;;;24.30;58.70;;;;;;217026;1293;23606;-64
2023/10/01 10:56:52;;;;;;;76.60;29.60;;;24.40;57.90;;;;;;217535;1289;26091;-64
2023/10/01 11:01:56;;;;;;;70.80;28.30;;;24.30;57.40;;;;;;216949;1286;25128;-65
2023/10/01 11:07:07;;;;;;;71.10;30.10;;;24.30;57.10;;;;;;217232;1295;22559;-65
2023/10/01 11:12:21;;;;;;;56.00;25.50;;;24.50;59.60;;;;;;217211;1292;22698;-66
2023/10/01 11:17:24;;;;;;;49.80;21.10;;;24.60;59.00;;;;;;217401;1297;22561;-64
2023/10/01 11:22:27;;;;;;;54.00;22.50;;;24.40;57.80;;;;;;217067;1292;22657;-64
2023/10/01 11:27:45;;;;;;;44.90;19.90;;;24.40;58.10;;;;;;217194;1291;24111;-66
2023/10/01 11:33:12;;;;;;;28.50;13.00;;;24.50;57.20;;;;;;217317;1282;22563;-66
2023/10/01 11:38:19;;;;;;;28.00;12.30;;;24.30;54.60;;;;;;217170;1295;25433;-67
2023/10/01 11:43:27;;;;;;;23.70;9.80;;;24.30;54.90;;;;;;217510;1298;24280;-67
2023/10/01 11:48:56;;;;;;;29.80;10.40;;;24.40;54.70;;;;;;217236;1298;24334;-66
2023/10/01 11:54:05;;;;;;;17.00;7.80;;;24.30;55.60;;;;;;217477;1292;22604;-66
2023/10/01 11:59:19;;;;;;;21.50;7.70;;;24.40;53.00;;;;;;217373;1298;24492;-65
2023/10/01 12:04:25;;;;;;;19.90;6.20;;;24.40;53.90;;;;;;217205;1292;24346;-64
2023/10/01 12:09:39;;;;;;;12.90;5.00;;;24.30;52.60;;;;;;217354;1295;22695;-66
2023/10/01 12:14:53;;;;;;;12.00;4.40;;;24.50;53.40;;;;;;217125;1298;22589;-65
2023/10/01 12:19:59;;;;;;;9.00;3.00;;;24.50;50.10;;;;;;217336;1292;22588;-64
2023/10/01 12:25:03;;;;;;;5.50;2.60;;;24.20;48.20;;;;;;217717;1291;23751;-64
2023/10/01 12:30:30;;;;;;;9.20;2.90;;;24.00;48.00;;;;;;217576;1294;22553;-65
2023/10/01 12:35:35;;;;;;;5.00;2.30;;;24.20;48.00;;;;;;217329;1295;24254;-64
2023/10/01 12:40:38;;;;;;;5.50;2.20;;;23.90;47.70;;;;;;217123;1291;22553;-65
2023/10/01 12:45:43;;;;;;;6.60;2.40;;;23.60;47.40;;;;;;217270;1291;22691;-63
2023/10/01 12:51:00;;;;;;;5.70;2.10;;;23.60;47.60;;;;;;217391;1291;24295;-64
2023/10/01 12:56:04;;;;;;;5.90;2.00;;;23.50;47.40;;;;;;217458;1298;24246;-63
2023/10/01 13:01:31;;;;;;;8.40;2.50;;;23.50;47.30;;;;;;217163;1291;25506;-66
2023/10/01 13:06:39;;;;;;;6.60;2.90;;;23.50;47.90;;;;;;218912;1292;23974;-64
2023/10/01 13:11:53;;;;;;;9.20;2.30;;;23.60;47.50;;;;;;217404;1290;25531;-66
2023/10/01 13:17:01;;;;;;;4.10;2.20;;;23.50;47.30;;;;;;217404;1291;24335;-65
2023/10/01 13:22:08;;;;;;;4.50;2.30;;;23.50;47.30;;;;;;217503;1291;22549;-66
2023/10/01 13:27:16;;;;;;;6.80;2.20;;;23.80;47.90;;;;;;217431;1291;25505;-65
2023/10/01 13:32:32;;;;;;;9.00;2.80;;;23.90;47.70;;;;;;217276;1292;23418;-62
2023/10/01 13:37:45;;;;;;;5.80;2.30;;;23.90;48.50;;;;;;217134;1292;25336;-75
2023/10/01 14:09:54;;;;;;;5.90;2.50;;;24.10;49.40;;;;;;217577;1292;24324;-71
2023/10/01 14:14:57;;;;;;;6.50;2.40;;;24.10;49.70;;;;;;217158;1291;24285;-72
2023/10/01 14:20:08;;;;;;;13.60;4.30;;;24.20;49.10;;;;;;216858;1294;24295;-68
2023/10/01 14:25:20;;;;;;;6.60;2.60;;;24.20;49.30;;;;;;218737;1294;25390;-69
2023/10/01 14:30:24;;;;;;;4.20;2.30;;;24.20;49.50;;;;;;217377;1289;24328;-71
2023/10/01 14:35:37;;;;;;;4.30;2.40;;;24.30;50.30;;;;;;217511;1292;25506;-70
2023/10/01 14:40:43;;;;;;;5.60;2.30;;;24.20;50.20;;;;;;217399;1291;24903;-68
2023/10/01 14:45:46;;;;;;;4.70;2.20;;;24.20;50.50;;;;;;217543;1298;24374;-70
2023/10/01 14:50:56;;;;;;;3.70;2.10;;;24.20;50.40;;;;;;217286;1298;22552;-70
2023/10/01 14:56:04;;;;;;;4.90;2.70;;;24.20;50.80;;;;;;217315;1285;22680;-67
2023/10/01 15:01:08;;;;;;;4.40;2.10;;;24.20;51.00;;;;;;217478;1291;23392;-71
2023/10/01 15:06:17;;;;;;;4.60;2.60;;;24.10;50.40;;;;;;216879;1297;436638;-67
2023/10/01 15:11:23;;;;;;;5.10;2.60;;;24.20;50.60;;;;;;217258;1295;22605;-70
2023/10/01 15:16:30;;;;;;;3.60;2.10;;;24.10;50.40;;;;;;217317;1291;22559;-71
2023/10/01 15:21:55;;;;;;;3.70;2.30;;;24.20;50.90;;;;;;217214;1292;22593;-70
2023/10/01 15:26:59;;;;;;;4.90;2.20;;;24.20;50.30;;;;;;217524;1292;22585;-71
2023/10/01 15:32:14;;;;;;;4.30;1.90;;;24.20;51.00;;;;;;217246;1285;24250;-71
2023/10/01 15:37:18;;;;;;;6.40;2.40;;;24.10;50.70;;;;;;217328;1292;23939;-70
2023/10/01 15:42:22;;;;;;;3.00;2.20;;;24.10;50.80;;;;;;217255;1298;24250;-69
2023/10/01 15:47:39;;;;;;;4.80;2.60;;;24.10;50.60;;;;;;217301;1297;25288;-69
2023/10/01 15:52:47;;;;;;;4.80;2.50;;;24.20;50.90;;;;;;217229;1297;22678;-72
2023/10/01 15:57:54;;;;;;;5.00;2.80;;;24.10;50.50;;;;;;217424;1294;22653;-70
2023/10/01 16:03:02;;;;;;;2.50;1.70;;;24.00;50.90;;;;;;217261;1294;22959;-71
2023/10/01 16:08:17;;;;;;;4.90;2.10;;;24.10;50.70;;;;;;217267;1297;22688;-70
2023/10/01 16:13:29;;;;;;;3.00;2.10;;;24.00;50.80;;;;;;217304;1295;23959;-69
2023/10/01 16:18:35;;;;;;;5.60;2.20;;;24.00;51.00;;;;;;217571;1283;22562;-69
2023/10/01 16:23:44;;;;;;;5.10;2.00;;;24.00;51.40;;;;;;217349;1294;26845;-69
2023/10/01 16:28:48;;;;;;;4.50;2.60;;;23.90;50.90;;;;;;217328;1291;24257;-69
2023/10/01 16:33:59;;;;;;;5.70;2.20;;;24.00;51.00;;;;;;217234;1285;22724;-70
2023/10/01 16:39:04;;;;;;;4.40;2.30;;;23.90;51.40;;;;;;217279;1297;24809;-69
2023/10/01 16:44:09;;;;;;;3.60;2.50;;;23.90;51.00;;;;;;217439;1288;24275;-69
2023/10/01 16:49:13;;;;;;;3.60;2.00;;;23.90;51.20;;;;;;217559;1291;22549;-70
2023/10/01 16:54:17;;;;;;;3.90;2.20;;;23.90;51.50;;;;;;217236;1298;24251;-70
2023/10/01 16:59:24;;;;;;;2.70;1.80;;;23.80;51.30;;;;;;217464;1295;24193;-68
2023/10/01 17:04:30;;;;;;;2.40;2.00;;;23.80;51.40;;;;;;217252;1291;25459;-71
2023/10/01 17:09:34;;;;;;;4.30;2.40;;;23.80;51.60;;;;;;217285;1296;26034;-70
2023/10/01 17:14:39;;;;;;;5.00;2.80;;;23.80;51.70;;;;;;217320;1292;22552;-71
2023/10/01 17:19:43;;;;;;;2.60;1.90;;;23.80;52.00;;;;;;217263;1288;25664;-70
2023/10/01 17:24:51;;;;;;;3.70;2.50;;;23.80;51.80;;;;;;217316;1297;22552;-70
2023/10/01 17:29:56;;;;;;;3.10;2.00;;;23.80;52.20;;;;;;217332;1297;22559;-69
2023/10/01 17:35:01;;;;;;;4.90;2.30;;;23.80;52.40;;;;;;217393;1298;24254;-64
2023/10/01 17:40:17;;;;;;;2.90;2.30;;;23.70;52.10;;;;;;217459;1291;24265;-71
2023/10/01 17:45:21;;;;;;;6.80;2.40;;;23.80;52.30;;;;;;217386;1291;24307;-69
2023/10/01 17:50:27;;;;;;;3.90;1.90;;;23.80;52.30;;;;;;217258;1298;22540;-68
2023/10/01 17:55:31;;;;;;;4.00;2.20;;;23.70;53.00;;;;;;217533;1287;25445;-69
2023/10/01 18:00:41;;;;;;;4.80;2.60;;;23.70;52.40;;;;;;217069;1288;25339;-71
2023/10/01 18:06:02;;;;;;;5.30;2.90;;;23.80;52.60;;;;;;217293;1294;25540;-65
2023/10/01 18:11:11;;;;;;;1.90;1.80;;;23.80;52.10;;;;;;217536;1298;24263;-69
2023/10/01 18:16:25;;;;;;;3.20;2.50;;;23.70;51.90;;;;;;217346;1298;22677;-70
2023/10/01 18:21:35;;;;;;;4.40;2.70;;;23.70;52.00;;;;;;217029;1291;23921;-69
2023/10/01 18:26:45;;;;;;;8.70;4.10;;;23.60;52.10;;;;;;217541;1295;25300;-72
2023/10/01 18:31:50;;;;;;;7.90;2.90;;;23.60;52.20;;;;;;217330;1282;23973;-72
2023/10/01 18:37:03;;;;;;;6.00;2.80;;;23.70;53.10;;;;;;217356;1285;22556;-74
2023/10/01 18:42:08;;;;;;;5.20;2.80;;;23.80;53.60;;;;;;217279;1276;24093;-72
2023/10/01 18:47:14;;;;;;;9.50;2.60;;;23.90;55.30;;;;;;217430;1276;24286;-78
2023/10/01 18:52:20;;;;;;;7.80;2.90;;;24.00;56.90;;;;;;217379;1291;25281;-76
2023/10/01 18:57:26;;;;;;;6.90;2.80;;;23.90;58.50;;;;;;217388;1292;22830;-76
2023/10/01 19:02:30;;;;;;;6.20;3.10;;;23.90;58.60;;;;;;217509;1294;24320;-70
2023/10/01 19:07:35;;;;;;;8.40;3.30;;;24.00;61.10;;;;;;217277;1292;22550;-74
2023/10/01 19:12:42;;;;;;;6.10;2.90;;;24.10;60.30;;;;;;217537;1294;24260;-79
2023/10/01 19:17:48;;;;;;;4.40;2.90;;;24.10;59.80;;;;;;217403;1285;22681;-74
2023/10/01 19:23:00;;;;;;;10.70;3.20;;;24.10;60.00;;;;;;217188;1298;24926;-74
2023/10/01 19:28:08;;;;;;;7.90;3.20;;;24.10;59.30;;;;;;217406;1295;22688;-67
2023/10/01 19:33:11;;;;;;;7.10;3.00;;;24.20;59.20;;;;;;217062;1281;25574;-67
2023/10/01 19:38:16;;;;;;;5.40;3.20;;;24.10;59.00;;;;;;217212;1295;22571;-74
2023/10/01 19:43:28;;;;;;;6.10;2.70;;;24.10;58.90;;;;;;217159;1298;24286;-74
2023/10/01 19:48:37;;;;;;;5.30;2.70;;;24.10;58.50;;;;;;216931;1291;25285;-73
2023/10/01 19:53:41;;;;;;;5.80;3.00;;;24.20;58.60;;;;;;216896;1294;24042;-67
2023/10/01 19:58:48;;;;;;;6.20;3.20;;;24.10;58.50;;;;;;217198;1294;22712;-69
2023/10/01 20:03:52;;;;;;;7.60;2.70;;;24.20;58.70;;;;;;217334;1295;25429;-69
2023/10/01 20:08:56;;;;;;;10.20;2.80;;;24.00;59.00;;;;;;217495;1295;24251;-73
2023/10/01 20:14:02;;;;;;;10.30;2.70;;;24.00;58.70;;;;;;217158;1291;22574;-63
2023/10/01 20:19:07;;;;;;;10.20;3.40;;;24.00;58.60;;;;;;217469;1283;22559;-67
2023/10/01 20:24:15;;;;;;;14.70;3.10;;;24.10;58.50;;;;;;216932;1292;22706;-70
2023/10/01 20:29:20;;;;;;;10.50;3.10;;;24.10;58.40;;;;;;217208;1292;24252;-73
2023/10/01 20:34:25;;;;;;;8.70;2.20;;;24.20;57.90;;;;;;217511;1298;22558;-73
2023/10/01 20:39:38;;;;;;;11.60;3.30;;;24.10;58.10;;;;;;217293;1288;22618;-74
2023/10/01 20:44:52;;;;;;;13.90;3.60;;;24.10;61.50;;;;;;216886;1297;22572;-71
2023/10/01 20:49:56;;;;;;;6.30;2.60;;;24.10;61.90;;;;;;217264;1297;22556;-77
2023/10/01 20:55:17;;;;;;;7.00;3.00;;;24.20;61.60;;;;;;216756;1287;22560;-71
2023/10/01 21:00:56;;;;;;;8.40;3.90;;;24.10;61.90;;;;;;216779;1290;24952;-70
2023/10/01 21:06:32;;;;;;;11.20;3.70;;;24.20;62.30;;;;;;216821;1294;22566;-74
2023/10/01 21:11:39;;;;;;;14.70;3.30;;;24.20;62.30;;;;;;216632;1295;23950;-68
2023/10/01 21:16:41;;;;;;;8.60;3.90;;;24.10;61.50;;;;;;216565;1302;24910;-67
2023/10/01 21:21:46;;;;;;;8.60;3.00;;;24.10;61.90;;;;;;217747;1294;25339;-71
2023/10/01 21:26:49;;;;;;;7.40;3.00;;;24.10;61.80;;;;;;217363;1281;24085;-73
2023/10/01 21:31:55;;;;;;;5.80;2.70;;;24.10;61.80;;;;;;217174;1292;22582;-71
2023/10/01 21:37:00;;;;;;;6.20;2.60;;;24.10;62.20;;;;;;218769;1291;25424;-73
2023/10/01 21:42:03;;;;;;;6.90;3.10;;;24.10;61.70;;;;;;217453;1288;22741;-76
2023/10/01 21:47:07;;;;;;;5.70;3.30;;;24.10;61.60;;;;;;218225;1294;22548;-74
2023/10/01 21:52:10;;;;;;;5.50;2.30;;;24.10;61.50;;;;;;218537;1294;22547;-76
2023/10/01 21:57:16;;;;;;;5.80;3.40;;;24.10;61.40;;;;;;217411;1292;24880;-75
2023/10/01 22:02:25;;;;;;;7.80;3.70;;;24.00;61.50;;;;;;217298;1295;22569;-71
2023/10/01 22:07:29;;;;;;;8.70;3.90;;;24.00;61.10;;;;;;217381;1292;23286;-74
2023/10/01 22:12:47;;;;;;;11.20;3.10;;;24.10;62.10;;;;;;217712;1292;22563;-66
2023/10/01 22:17:51;;;;;;;8.60;3.10;;;24.10;62.00;;;;;;217775;1282;25329;-75
2023/10/01 22:22:54;;;;;;;6.20;3.20;;;24.10;61.50;;;;;;217251;1295;22691;-68
2023/10/01 22:28:05;;;;;;;7.80;3.30;;;24.10;61.60;;;;;;217459;1295;22549;-68
2023/10/01 22:33:08;;;;;;;9.40;4.10;;;24.20;61.20;;;;;;217359;1291;22712;-67
2023/10/01 22:38:19;;;;;;;4.80;3.00;;;24.20;61.20;;;;;;217266;1294;22655;-68
2023/10/01 22:43:32;;;;;;;7.20;2.80;;;24.20;61.20;;;;;;217470;1295;25548;-67
2023/10/01 22:48:44;;;;;;;7.00;3.70;;;24.10;61.40;;;;;;217192;1298;22553;-65
2023/10/01 22:53:48;;;;;;;5.10;3.30;;;24.20;61.20;;;;;;217614;1278;24286;-68
2023/10/01 22:58:51;;;;;;;5.20;3.70;;;24.10;61.20;;;;;;217538;1298;22547;-67
2023/10/01 23:04:09;;;;;;;5.20;3.30;;;24.10;61.30;;;;;;217356;1291;22552;-66
2023/10/01 23:09:18;;;;;;;3.50;2.70;;;24.10;61.20;;;;;;217299;1295;25456;-65
2023/10/01 23:14:25;;;;;;;5.10;3.20;;;24.10;61.20;;;;;;217311;1297;25352;-65
2023/10/01 23:19:36;;;;;;;5.10;2.60;;;24.00;61.40;;;;;;217627;1292;22578;-66
2023/10/01 23:24:42;;;;;;;6.00;3.10;;;24.00;61.40;;;;;;217267;1294;24248;-65
2023/10/01 23:29:45;;;;;;;5.70;3.60;;;23.90;61.10;;;;;;217231;1292;24231;-67
2023/10/01 23:34:51;;;;;;;3.30;2.40;;;23.90;61.20;;;;;;217352;1295;23955;-64
2023/10/01 23:40:01;;;;;;;4.80;2.80;;;23.90;61.30;;;;;;217234;1298;24270;-62
2023/10/01 23:45:05;;;;;;;4.50;2.80;;;23.90;61.40;;;;;;217181;1294;22565;-63
2023/10/01 23:55:32;;;;;;;6.00;2.60;;;23.90;61.50;;;;;;217116;1294;22561;-62
